createdAt,value
2023-02-27T00:01:34.956Z,30.31
2023-02-27T00:04:01.795Z,30.45
2023-02-27T00:06:28.663Z,30.51
2023-02-27T00:08:55.122Z,30.38
2023-02-27T00:11:21.874Z,30.26
2023-02-27T00:13:48.252Z,30.21
2023-02-27T00:16:14.724Z,30.37
2023-02-27T00:18:41.164Z,30.15
2023-02-27T00:21:07.517Z,30.14
2023-02-27T00:23:34.020Z,30.03
2023-02-27T00:26:01.011Z,30.17
2023-02-27T00:28:28.307Z,29.95
2023-02-27T00:30:54.769Z,29.93
2023-02-27T00:33:21.279Z,30.16
2023-02-27T00:36:01.554Z,29.99
2023-02-27T00:38:28.133Z,30.25
2023-02-27T00:40:54.524Z,30.06
2023-02-27T00:43:21.058Z,30.06
2023-02-27T00:45:48.392Z,30.06
2023-02-27T00:48:15.225Z,30.03
2023-02-27T00:50:41.955Z,30.35
2023-02-27T00:53:08.453Z,30.27
2023-02-27T00:55:34.869Z,29.96
2023-02-27T00:58:01.262Z,30.14
2023-02-27T01:00:27.674Z,30.13
2023-02-27T01:02:54.317Z,30.41
2023-02-27T01:05:21.181Z,30.12
2023-02-27T01:07:47.557Z,30.16
2023-02-27T01:10:13.923Z,30.05
2023-02-27T01:12:40.822Z,30.40
2023-02-27T01:15:08.679Z,30.07
2023-02-27T01:17:35.078Z,30.02
2023-02-27T01:20:01.441Z,30.21
2023-02-27T01:22:27.801Z,30.35
2023-02-27T01:24:54.158Z,30.07
2023-02-27T01:27:20.510Z,30.25
2023-02-27T01:29:46.912Z,30.32
2023-02-27T01:32:13.347Z,30.33
2023-02-27T01:34:39.891Z,30.67
2023-02-27T01:37:06.253Z,30.20
2023-02-27T01:39:33.122Z,30.52
2023-02-27T01:42:00.929Z,30.51
2023-02-27T01:44:29.986Z,30.52
2023-02-27T01:46:56.405Z,30.70
2023-02-27T01:49:29.045Z,30.49
2023-02-27T01:52:02.978Z,30.47
2023-02-27T01:54:32.332Z,30.62
2023-02-27T01:56:59.003Z,30.50
2023-02-27T01:59:25.634Z,30.60
2023-02-27T02:01:52.487Z,30.41
2023-02-27T02:04:35.171Z,30.63
2023-02-27T02:07:15.226Z,30.38
2023-02-27T02:09:45.102Z,30.53
2023-02-27T02:12:14.723Z,30.55
2023-02-27T02:14:41.101Z,30.58
2023-02-27T02:17:12.443Z,30.59
2023-02-27T02:20:00.433Z,30.82
2023-02-27T02:22:55.916Z,30.37
2023-02-27T02:25:59.778Z,30.57
2023-02-27T02:29:08.990Z,30.53
2023-02-27T02:32:00.961Z,30.96
2023-02-27T02:34:46.090Z,30.83
2023-02-27T02:37:18.311Z,30.42
2023-02-27T02:40:05.906Z,30.78
2023-02-27T02:42:38.451Z,30.75
2023-02-27T02:45:17.425Z,30.44
2023-02-27T02:48:03.590Z,30.43
2023-02-27T02:50:48.245Z,30.67
2023-02-27T02:53:38.256Z,30.85
2023-02-27T02:56:12.924Z,30.57
2023-02-27T02:58:49.414Z,30.43
2023-02-27T03:01:25.840Z,30.86
2023-02-27T03:04:03.559Z,30.42
2023-02-27T03:06:35.003Z,30.85
2023-02-27T03:09:15.722Z,30.45
2023-02-27T03:11:45.475Z,30.76
2023-02-27T03:14:29.056Z,30.79
2023-02-27T03:16:58.389Z,30.45
2023-02-27T03:19:40.990Z,30.78
2023-02-27T03:22:10.794Z,30.72
2023-02-27T03:24:45.131Z,30.82
2023-02-27T03:27:11.790Z,30.47
2023-02-27T03:29:44.718Z,31.10
2023-02-27T03:32:17.871Z,30.69
2023-02-27T03:34:45.729Z,30.56
2023-02-27T03:37:44.516Z,30.82
2023-02-27T03:40:23.776Z,30.75
2023-02-27T03:43:01.022Z,31.06
2023-02-27T03:45:37.490Z,31.04
2023-02-27T03:48:06.798Z,30.82
2023-02-27T03:50:37.197Z,30.70
2023-02-27T03:53:10.561Z,30.93
2023-02-27T03:55:40.892Z,31.11
2023-02-27T03:58:07.304Z,30.91
2023-02-27T04:00:34.618Z,31.00
2023-02-27T04:03:02.316Z,31.24
2023-02-27T04:05:29.064Z,30.71
2023-02-27T04:08:20.810Z,30.82
2023-02-27T04:11:31.297Z,31.04
2023-02-27T04:14:28.539Z,30.76
2023-02-27T04:17:15.706Z,30.92
2023-02-27T04:20:27.932Z,30.93
2023-02-27T04:23:03.708Z,31.22
2023-02-27T04:26:04.089Z,31.17
2023-02-27T04:29:11.053Z,31.15
2023-02-27T04:32:06.872Z,31.19
2023-02-27T04:34:42.328Z,31.17
2023-02-27T04:37:15.306Z,30.84
2023-02-27T04:39:53.343Z,31.19
2023-02-27T04:42:42.252Z,30.86
2023-02-27T04:45:14.230Z,30.84
2023-02-27T04:47:49.089Z,30.93
2023-02-27T04:50:21.777Z,31.01
2023-02-27T04:52:54.981Z,31.02
2023-02-27T04:55:28.592Z,30.89
2023-02-27T04:58:00.357Z,30.83
2023-02-27T05:00:29.508Z,30.93
2023-02-27T05:03:13.318Z,30.85
2023-02-27T05:05:43.591Z,31.07
2023-02-27T05:08:19.043Z,30.91
2023-02-27T05:11:09.130Z,31.11
2023-02-27T05:13:43.626Z,31.13
2023-02-27T05:16:32.867Z,31.06
2023-02-27T05:19:01.043Z,30.78
2023-02-27T05:21:53.810Z,31.22
2023-02-27T05:24:46.510Z,30.95
2023-02-27T05:27:24.751Z,30.77
2023-02-27T05:29:52.284Z,31.00
2023-02-27T05:32:41.946Z,30.75
2023-02-27T05:35:20.132Z,30.76
2023-02-27T05:37:53.384Z,30.84
2023-02-27T05:40:25.488Z,31.14
2023-02-27T05:43:13.030Z,30.82
2023-02-27T05:45:43.487Z,30.69
2023-02-27T05:48:17.242Z,30.93
2023-02-27T05:50:47.906Z,30.61
2023-02-27T05:53:17.878Z,31.01
2023-02-27T05:55:49.343Z,30.91
2023-02-27T05:58:26.065Z,30.75
2023-02-27T06:01:01.262Z,30.78
2023-02-27T06:03:28.512Z,30.58
2023-02-27T06:05:56.968Z,30.60
2023-02-27T06:08:24.039Z,30.56
2023-02-27T06:10:50.576Z,30.71
2023-02-27T06:13:17.206Z,30.53
2023-02-27T06:15:44.361Z,30.34
2023-02-27T06:18:15.366Z,30.58
2023-02-27T06:20:42.994Z,30.60
2023-02-27T06:23:09.925Z,30.26
2023-02-27T06:25:36.933Z,30.63
2023-02-27T06:28:03.878Z,30.47
2023-02-27T06:30:30.781Z,30.44
2023-02-27T06:32:58.138Z,30.65
2023-02-27T06:35:24.534Z,30.40
2023-02-27T06:37:50.901Z,30.53
2023-02-27T06:40:19.016Z,30.38
2023-02-27T06:42:45.858Z,30.51
2023-02-27T06:45:13.431Z,30.57
2023-02-27T06:47:41.148Z,30.21
2023-02-27T06:50:11.118Z,30.34
2023-02-27T06:52:38.987Z,30.24
2023-02-27T06:55:07.005Z,30.42
2023-02-27T06:57:33.613Z,30.58
2023-02-27T06:59:59.971Z,30.29
2023-02-27T07:02:26.339Z,30.44
2023-02-27T07:04:53.088Z,30.64
2023-02-27T07:07:34.420Z,30.87
2023-02-27T07:10:03.543Z,31.02
2023-02-27T07:12:29.926Z,30.87
2023-02-27T07:14:56.291Z,31.03
2023-02-27T07:17:22.689Z,31.01
2023-02-27T07:21:00.565Z,23.44
2023-02-27T07:23:26.983Z,23.38
2023-02-27T07:25:56.153Z,24.86
2023-02-27T07:28:22.588Z,27.96
2023-02-27T07:30:49.001Z,30.75
2023-02-27T07:33:15.438Z,33.07
2023-02-27T07:35:41.808Z,34.95
2023-02-27T07:38:08.218Z,36.89
2023-02-27T07:40:34.627Z,39.51
2023-02-27T07:43:01.015Z,41.17
2023-02-27T07:45:27.404Z,43.53
2023-02-27T07:47:53.805Z,45.68
2023-02-27T07:50:20.250Z,47.17
2023-02-27T07:52:46.679Z,48.50
2023-02-27T07:55:20.163Z,51.00
2023-02-27T07:57:46.634Z,58.09
2023-02-27T08:00:13.360Z,60.68
2023-02-27T08:02:39.865Z,60.83
2023-02-27T08:05:07.184Z,61.11
2023-02-27T08:07:33.594Z,61.33
2023-02-27T08:09:59.957Z,61.24
2023-02-27T08:12:26.313Z,61.60
2023-02-27T08:14:52.694Z,64.52
2023-02-27T08:17:19.146Z,65.00
2023-02-27T08:19:45.503Z,62.36
2023-02-27T08:22:12.334Z,63.46
2023-02-27T08:24:40.388Z,64.31
2023-02-27T08:27:07.574Z,63.16
2023-02-27T08:29:34.366Z,63.29
2023-02-27T08:32:02.390Z,63.37
2023-02-27T08:34:30.135Z,63.70
2023-02-27T08:36:56.517Z,62.15
2023-02-27T08:39:25.722Z,62.55
2023-02-27T08:41:54.967Z,62.83
2023-02-27T08:44:21.394Z,64.43
2023-02-27T08:46:47.826Z,62.91
2023-02-27T08:49:14.643Z,62.17
2023-02-27T08:51:41.029Z,61.29
2023-02-27T08:54:07.403Z,61.18
2023-02-27T08:56:34.804Z,61.04
2023-02-27T08:59:01.976Z,62.43
2023-02-27T09:01:34.157Z,61.51
2023-02-27T09:04:02.369Z,60.82
2023-02-27T09:06:29.350Z,61.08
2023-02-27T09:08:57.371Z,60.98
2023-02-27T09:11:24.609Z,61.85
2023-02-27T09:13:51.592Z,60.69
2023-02-27T09:16:19.580Z,60.97
2023-02-27T09:18:46.142Z,61.99
2023-02-27T09:21:12.920Z,62.63
2023-02-27T09:23:39.470Z,62.18
2023-02-27T09:26:06.545Z,64.97
2023-02-27T09:28:33.021Z,62.67
2023-02-27T09:31:05.818Z,60.67
2023-02-27T09:33:33.654Z,61.57
2023-02-27T09:36:00.051Z,61.08
2023-02-27T09:38:26.837Z,62.20
2023-02-27T09:40:56.460Z,60.52
2023-02-27T09:43:43.359Z,60.03
2023-02-27T09:46:17.865Z,59.67
2023-02-27T09:48:52.221Z,58.61
2023-02-27T09:51:19.723Z,58.13
2023-02-27T09:53:49.384Z,57.85
2023-02-27T09:56:28.138Z,57.02
2023-02-27T09:59:07.949Z,58.36
2023-02-27T10:01:45.077Z,57.65
2023-02-27T10:04:34.518Z,56.83
2023-02-27T10:07:25.915Z,56.42
2023-02-27T10:10:20.233Z,55.34
2023-02-27T10:12:59.760Z,56.16
2023-02-27T10:15:31.065Z,56.53
2023-02-27T10:18:26.936Z,54.27
2023-02-27T10:21:10.767Z,51.50
2023-02-27T10:23:55.188Z,51.89
2023-02-27T10:26:27.985Z,53.94
2023-02-27T10:28:54.432Z,52.52
2023-02-27T10:31:25.835Z,51.93
2023-02-27T10:33:52.905Z,52.29
2023-02-27T10:36:32.634Z,52.41
2023-02-27T10:39:04.527Z,51.63
2023-02-27T10:41:31.166Z,51.71
2023-02-27T10:44:00.063Z,52.59
2023-02-27T10:46:30.521Z,50.31
2023-02-27T10:49:02.576Z,49.97
2023-02-27T10:51:33.376Z,50.33
2023-02-27T10:54:25.076Z,46.96
2023-02-27T10:56:54.744Z,48.51
2023-02-27T10:59:26.979Z,49.21
2023-02-27T11:01:56.527Z,47.03
2023-02-27T11:04:36.715Z,45.57
2023-02-27T11:07:06.688Z,45.18
2023-02-27T11:09:34.050Z,46.46
2023-02-27T11:12:30.057Z,44.29
2023-02-27T11:14:59.376Z,45.35
2023-02-27T11:17:34.125Z,43.85
2023-02-27T11:20:06.152Z,43.01
2023-02-27T11:22:33.236Z,44.30
2023-02-27T11:25:23.099Z,44.30
2023-02-27T11:27:52.063Z,44.77
2023-02-27T11:30:29.600Z,44.73
2023-02-27T11:32:58.979Z,45.87
2023-02-27T11:35:31.422Z,46.52
2023-02-27T11:38:02.069Z,45.54
2023-02-27T11:40:36.622Z,46.10
2023-02-27T11:43:15.949Z,45.79
2023-02-27T11:46:20.351Z,45.35
2023-02-27T11:48:37.467Z,46.41
2023-02-27T11:51:36.106Z,46.11
2023-02-27T11:54:07.826Z,46.01
2023-02-27T11:56:39.148Z,46.25
2023-02-27T11:59:11.460Z,46.10
2023-02-27T12:01:46.728Z,45.98
2023-02-27T12:04:43.634Z,45.93
2023-02-27T12:07:21.959Z,46.08
2023-02-27T12:09:51.527Z,45.13
2023-02-27T12:12:44.277Z,45.56
2023-02-27T12:15:35.663Z,46.10
2023-02-27T12:18:15.278Z,45.42
2023-02-27T12:20:59.199Z,44.04
2023-02-27T12:23:46.843Z,43.40
2023-02-27T12:26:23.287Z,43.40
2023-02-27T12:29:03.504Z,42.68
2023-02-27T12:31:44.309Z,42.68
2023-02-27T12:34:16.954Z,41.44
2023-02-27T12:36:43.637Z,40.29
2023-02-27T12:39:21.203Z,40.37
2023-02-27T12:42:06.309Z,40.08
2023-02-27T12:44:58.414Z,40.12
2023-02-27T12:47:55.824Z,36.21
2023-02-27T12:50:24.843Z,36.11
2023-02-27T12:53:26.723Z,36.82
2023-02-27T12:56:01.189Z,36.24
2023-02-27T12:58:37.994Z,34.61
2023-02-27T13:01:22.782Z,36.13
2023-02-27T13:03:59.425Z,32.28
2023-02-27T13:06:44.741Z,32.24
2023-02-27T13:09:40.621Z,32.50
2023-02-27T13:12:25.168Z,32.48
2023-02-27T13:15:13.448Z,33.88
2023-02-27T13:18:04.429Z,33.80
2023-02-27T13:20:44.408Z,34.19
2023-02-27T13:23:35.436Z,34.50
2023-02-27T13:26:11.893Z,36.01
2023-02-27T13:28:39.261Z,35.81
2023-02-27T13:31:29.766Z,36.38
2023-02-27T13:34:15.996Z,37.54
2023-02-27T13:36:50.723Z,36.13
2023-02-27T13:39:39.615Z,34.36
2023-02-27T13:42:27.873Z,35.58
2023-02-27T13:44:58.938Z,34.27
2023-02-27T13:47:31.460Z,34.64
2023-02-27T13:50:02.952Z,33.19
2023-02-27T13:52:32.313Z,33.30
2023-02-27T13:55:06.230Z,33.11
2023-02-27T13:57:38.547Z,32.83
2023-02-27T14:00:16.646Z,32.99
2023-02-27T14:02:59.265Z,33.45
2023-02-27T14:05:31.221Z,34.26
2023-02-27T14:08:04.042Z,34.92
2023-02-27T14:10:31.529Z,35.02
2023-02-27T14:12:58.973Z,35.33
2023-02-27T14:15:25.301Z,35.88
2023-02-27T14:18:09.648Z,35.63
2023-02-27T14:20:38.909Z,36.36
2023-02-27T14:23:17.497Z,36.60
2023-02-27T14:26:15.650Z,36.23
2023-02-27T14:28:55.724Z,37.20
2023-02-27T14:31:34.910Z,37.09
2023-02-27T14:34:05.921Z,37.31
2023-02-27T14:36:40.755Z,37.68
2023-02-27T14:39:07.275Z,37.19
2023-02-27T14:41:49.657Z,37.62
2023-02-27T14:44:24.189Z,38.18
2023-02-27T14:46:53.304Z,38.30
2023-02-27T14:49:31.095Z,38.52
2023-02-27T14:52:09.907Z,38.91
2023-02-27T14:54:36.329Z,38.91
2023-02-27T14:57:05.796Z,38.41
2023-02-27T14:59:48.848Z,38.68
2023-02-27T15:02:25.442Z,38.96
2023-02-27T15:05:00.544Z,39.30
2023-02-27T15:07:30.319Z,39.77
2023-02-27T15:09:59.714Z,39.43
2023-02-27T15:12:27.968Z,38.99
2023-02-27T15:15:00.836Z,38.34
2023-02-27T15:17:36.636Z,39.25
2023-02-27T15:20:21.348Z,39.07
2023-02-27T15:22:47.714Z,39.51
2023-02-27T15:25:35.408Z,39.01
2023-02-27T15:28:04.827Z,39.19
2023-02-27T15:30:32.346Z,40.03
2023-02-27T15:32:59.421Z,40.20
2023-02-27T15:35:34.960Z,40.60
2023-02-27T15:38:02.520Z,40.12
2023-02-27T15:40:31.252Z,40.61
2023-02-27T15:42:59.208Z,40.33
2023-02-27T15:45:30.437Z,40.66
2023-02-27T15:47:57.128Z,40.71
2023-02-27T15:50:31.446Z,40.61
2023-02-27T15:53:06.868Z,40.20
2023-02-27T15:55:37.443Z,40.39
2023-02-27T15:58:15.701Z,40.07
2023-02-27T16:00:42.165Z,40.71
2023-02-27T16:03:09.624Z,40.63
2023-02-27T16:05:38.815Z,40.57
2023-02-27T16:08:06.781Z,40.65
2023-02-27T16:10:44.480Z,40.92
2023-02-27T16:13:36.863Z,40.91
2023-02-27T16:16:23.577Z,41.20
2023-02-27T16:18:52.714Z,41.12
2023-02-27T16:21:21.549Z,41.28
2023-02-27T16:23:48.170Z,41.13
2023-02-27T16:26:36.421Z,41.33
2023-02-27T16:29:04.804Z,41.18
2023-02-27T16:31:37.298Z,41.61
2023-02-27T16:34:12.490Z,41.76
2023-02-27T16:36:40.933Z,41.35
2023-02-27T16:39:12.805Z,41.83
2023-02-27T16:41:39.189Z,42.75
2023-02-27T16:44:05.588Z,43.48
2023-02-27T16:46:32.112Z,44.69
2023-02-27T16:49:17.876Z,46.14
2023-02-27T16:51:46.609Z,45.17
2023-02-27T16:54:13.938Z,46.01
2023-02-27T16:56:40.913Z,45.11
2023-02-27T16:59:26.822Z,45.98
2023-02-27T17:01:53.274Z,46.02
2023-02-27T17:04:25.699Z,46.36
2023-02-27T17:06:53.371Z,46.67
2023-02-27T17:09:19.742Z,46.60
2023-02-27T17:11:46.213Z,47.56
2023-02-27T17:14:12.968Z,47.27
2023-02-27T17:16:39.386Z,47.43
2023-02-27T17:19:05.821Z,47.52
2023-02-27T17:21:32.780Z,47.65
2023-02-27T17:23:59.171Z,47.96
2023-02-27T17:26:27.034Z,47.59
2023-02-27T17:28:55.224Z,47.67
2023-02-27T17:31:23.092Z,47.87
2023-02-27T17:33:50.916Z,48.29
2023-02-27T17:36:17.913Z,48.57
2023-02-27T17:38:44.279Z,48.50
2023-02-27T17:41:12.509Z,48.58
2023-02-27T17:43:39.910Z,48.93
2023-02-27T17:46:08.248Z,48.78
2023-02-27T17:48:35.573Z,48.92
2023-02-27T17:51:11.397Z,48.90
2023-02-27T17:53:38.471Z,48.99
2023-02-27T17:56:06.138Z,48.71
2023-02-27T17:58:34.014Z,49.32
2023-02-27T18:01:20.146Z,49.53
2023-02-27T18:03:47.634Z,49.23
2023-02-27T18:06:14.683Z,49.57
2023-02-27T18:08:41.251Z,49.68
2023-02-27T18:11:12.767Z,49.36
2023-02-27T18:13:40.434Z,49.37
2023-02-27T18:16:07.223Z,49.48
2023-02-27T18:18:39.271Z,49.07
2023-02-27T18:21:07.897Z,49.52
2023-02-27T18:23:34.318Z,50.05
2023-02-27T18:26:00.995Z,49.54
2023-02-27T18:28:28.334Z,49.54
2023-02-27T18:30:54.782Z,49.73
2023-02-27T18:33:22.963Z,49.52
2023-02-27T18:35:49.655Z,49.28
2023-02-27T18:38:16.075Z,49.80
2023-02-27T18:40:42.812Z,50.07
2023-02-27T18:43:10.314Z,50.51
2023-02-27T18:45:37.923Z,50.38
2023-02-27T18:48:04.428Z,50.48
2023-02-27T18:50:30.976Z,50.28
2023-02-27T18:52:59.106Z,50.38
2023-02-27T18:55:25.900Z,50.00
2023-02-27T18:57:52.301Z,50.60
2023-02-27T19:00:21.638Z,50.27
2023-02-27T19:02:48.137Z,50.15
2023-02-27T19:05:14.782Z,50.15
2023-02-27T19:07:42.287Z,49.55
2023-02-27T19:10:09.448Z,49.70
2023-02-27T19:12:35.903Z,49.94
2023-02-27T19:15:03.381Z,49.75
2023-02-27T19:17:29.796Z,49.29
2023-02-27T19:19:56.164Z,49.58
2023-02-27T19:22:22.540Z,49.61
2023-02-27T19:24:49.972Z,49.58
2023-02-27T19:27:17.159Z,49.56
2023-02-27T19:29:43.600Z,49.57
2023-02-27T19:32:10.078Z,49.64
2023-02-27T19:34:36.466Z,49.36
2023-02-27T19:37:02.989Z,49.59
2023-02-27T19:39:29.397Z,49.51
2023-02-27T19:41:56.505Z,48.90
2023-02-27T19:44:22.997Z,49.32
2023-02-27T19:46:52.087Z,49.31
2023-02-27T19:49:19.747Z,49.25
2023-02-27T19:51:46.163Z,49.48
2023-02-27T19:54:14.105Z,49.56
2023-02-27T19:56:40.478Z,49.62
2023-02-27T19:59:06.860Z,50.48
2023-02-27T20:01:36.183Z,49.94
2023-02-27T20:04:03.263Z,50.15
2023-02-27T20:06:31.974Z,50.16
2023-02-27T20:08:59.435Z,49.91
2023-02-27T20:11:30.792Z,50.38
2023-02-27T20:13:57.410Z,50.45
2023-02-27T20:16:26.407Z,50.60
2023-02-27T20:18:53.802Z,50.98
2023-02-27T20:21:24.494Z,50.77
2023-02-27T20:23:53.814Z,51.24
2023-02-27T20:26:24.389Z,51.25
2023-02-27T20:28:52.546Z,50.80
2023-02-27T20:31:21.196Z,50.85
2023-02-27T20:33:48.577Z,50.89
2023-02-27T20:36:16.034Z,51.14
2023-02-27T20:38:42.855Z,51.54
2023-02-27T20:41:17.989Z,51.50
2023-02-27T20:43:45.274Z,51.75
2023-02-27T20:46:15.212Z,51.59
2023-02-27T20:48:42.216Z,51.54
2023-02-27T20:51:11.746Z,51.69
2023-02-27T20:53:40.353Z,51.65
2023-02-27T20:56:08.373Z,51.91
2023-02-27T20:58:35.109Z,51.92
2023-02-27T21:01:04.888Z,52.38
2023-02-27T21:03:38.474Z,52.28
2023-02-27T21:06:07.322Z,52.67
2023-02-27T21:08:38.215Z,52.95
2023-02-27T21:11:13.715Z,52.84
2023-02-27T21:13:40.381Z,52.89
2023-02-27T21:16:09.411Z,52.98
2023-02-27T21:18:37.449Z,52.96
2023-02-27T21:21:13.184Z,52.59
2023-02-27T21:23:42.173Z,53.31
2023-02-27T21:26:14.032Z,53.28
2023-02-27T21:28:46.731Z,53.26
2023-02-27T21:31:17.631Z,53.61
2023-02-27T21:33:44.228Z,53.86
2023-02-27T21:36:11.487Z,53.75
2023-02-27T21:38:39.193Z,53.82
2023-02-27T21:41:12.767Z,54.01
2023-02-27T21:43:42.069Z,54.50
2023-02-27T21:46:11.884Z,54.41
2023-02-27T21:48:39.328Z,54.72
2023-02-27T21:51:06.923Z,54.60
2023-02-27T21:53:33.454Z,54.51
2023-02-27T21:56:08.130Z,54.21
2023-02-27T21:58:34.609Z,54.41
2023-02-27T22:01:01.105Z,54.90
2023-02-27T22:03:34.260Z,55.00
2023-02-27T22:06:01.912Z,55.29
2023-02-27T22:08:28.789Z,55.32
2023-02-27T22:10:59.544Z,55.36
2023-02-27T22:13:26.574Z,55.68
2023-02-27T22:15:53.648Z,55.86
2023-02-27T22:18:20.801Z,55.92
2023-02-27T22:20:47.265Z,56.07
2023-02-27T22:23:13.838Z,56.07
2023-02-27T22:25:41.124Z,56.56
2023-02-27T22:28:07.528Z,56.27
2023-02-27T22:30:34.231Z,56.51
2023-02-27T22:33:00.620Z,56.02
2023-02-27T22:35:27.021Z,55.98
2023-02-27T22:37:53.461Z,56.16
2023-02-27T22:40:20.330Z,56.46
2023-02-27T22:42:48.029Z,56.41
2023-02-27T22:45:15.034Z,56.78
2023-02-27T22:47:41.514Z,56.32
2023-02-27T22:50:08.289Z,56.28
2023-02-27T22:52:36.424Z,56.82
2023-02-27T22:55:03.485Z,57.18
2023-02-27T22:57:29.866Z,57.15
2023-02-27T22:59:56.260Z,57.55
2023-02-27T23:02:22.628Z,57.97
2023-02-27T23:04:48.995Z,57.73
2023-02-27T23:07:15.367Z,57.98
2023-02-27T23:09:41.968Z,58.03
2023-02-27T23:12:08.478Z,58.34
2023-02-27T23:14:34.906Z,58.52
2023-02-27T23:17:01.351Z,58.11
2023-02-27T23:19:27.720Z,58.20
2023-02-27T23:21:54.086Z,58.05
2023-02-27T23:24:20.672Z,57.73
2023-02-27T23:26:48.898Z,57.70
2023-02-27T23:29:15.631Z,58.04
2023-02-27T23:31:42.479Z,58.21
2023-02-27T23:34:09.660Z,57.99
2023-02-27T23:36:37.872Z,58.23
2023-02-27T23:39:05.999Z,58.19
2023-02-27T23:41:33.006Z,58.38
2023-02-27T23:44:01.445Z,58.28
2023-02-27T23:46:30.309Z,58.43
2023-02-27T23:48:58.394Z,58.61
2023-02-27T23:51:25.122Z,58.42
2023-02-27T23:53:51.490Z,58.62
2023-02-27T23:56:23.071Z,58.85
2023-02-27T23:58:55.040Z,58.42
